Time;durP1;ratioP1;P1;durP2;ratioP2;P2;SDS_P1;SDS_P2;PMS_P1;PMS_P2;Temp;Humidity;BMP_temperature;BMP_pressure;BME280_temperature;BME280_humidity;BME280_pressure;Samples;Min_cycle;Max_cycle;Signal;HPM_P1;HPM_P2
2021/08/17 00:00:00;;;;;;;4.50;4.10;;;;;;;25.49;34.66;94644.19;5074784;28;20436;-82
2021/08/17 00:02:28;;;;;;;6.20;4.57;;;;;;;25.50;34.53;94652.03;5075927;28;20772;-82
2021/08/17 00:04:56;;;;;;;4.93;4.43;;;;;;;25.47;34.73;94648.97;5075174;28;20452;-82
2021/08/17 00:07:23;;;;;;;4.90;4.40;;;;;;;25.40;33.03;94643.66;5074671;28;20440;-82
2021/08/17 00:09:50;;;;;;;5.57;4.57;;;;;;;25.32;33.57;94644.00;5074639;28;20452;-82
2021/08/17 00:12:17;;;;;;;5.17;4.67;;;;;;;25.23;35.58;94651.56;5074584;28;20539;-82
2021/08/17 00:14:44;;;;;;;4.27;3.97;;;;;;;25.13;34.18;94650.44;5074988;28;20552;-82
2021/08/17 00:17:11;;;;;;;5.10;4.60;;;;;;;25.04;34.33;94649.09;5039757;28;20520;-82
2021/08/17 00:19:40;;;;;;;5.00;4.33;;;;;;;24.97;36.11;94651.84;5056374;28;20482;-82
2021/08/17 00:22:08;;;;;;;5.07;4.50;;;;;;;24.84;34.98;94646.63;5074447;28;20437;-82
2021/08/17 00:24:36;;;;;;;4.90;4.50;;;;;;;24.78;35.75;94647.50;5074307;28;20443;-82
2021/08/17 00:27:03;;;;;;;4.80;4.40;;;;;;;24.69;35.63;94645.13;5074321;28;21020;-83
2021/08/17 00:29:30;;;;;;;5.60;4.03;;;;;;;24.66;36.84;94647.44;5074104;28;20461;-82
2021/08/17 00:31:57;;;;;;;4.80;4.30;;;;;;;24.65;36.50;94641.25;5074886;28;20531;-82
2021/08/17 00:34:24;;;;;;;4.63;4.23;;;;;;;24.71;36.72;94639.53;5074367;28;20434;-82
2021/08/17 00:36:52;;;;;;;4.23;3.93;;;;;;;24.76;37.13;94638.88;5038857;28;20488;-82
2021/08/17 00:46:06;;;;;;;4.73;4.33;;;;;;;24.82;37.97;94641.47;5073063;28;20465;-82
2021/08/17 00:48:35;;;;;;;5.43;4.17;;;;;;;24.81;37.41;94637.16;5073822;28;20430;-83
2021/08/17 00:51:02;;;;;;;6.53;4.83;;;;;;;24.80;37.77;94632.00;5073706;28;20460;-82
2021/08/17 00:53:29;;;;;;;5.13;4.63;;;;;;;24.79;36.38;94639.25;5073734;28;20940;-82
2021/08/17 00:55:57;;;;;;;5.00;4.50;;;;;;;24.64;36.34;94634.25;5073847;28;20486;-82
2021/08/17 00:58:24;;;;;;;4.77;4.37;;;;;;;24.25;37.44;94632.75;5074070;28;20431;-82
2021/08/17 01:00:52;;;;;;;5.63;4.40;;;;;;;24.09;36.96;94633.31;5073957;28;20522;-82
2021/08/17 01:03:20;;;;;;;5.40;5.00;;;;;;;24.18;37.86;94631.16;5038843;28;20452;-83
2021/08/17 01:52:21;;;;;;;6.13;5.23;;;;;;;24.15;39.18;94626.25;5050857;28;20472;-82
2021/08/17 01:54:48;;;;;;;6.00;4.43;;;;;;;24.22;39.72;94627.81;5073322;28;20873;-82
2021/08/17 01:57:15;;;;;;;8.60;5.17;;;;;;;24.25;39.14;94631.91;5073091;28;20439;-82
2021/08/17 01:59:42;;;;;;;8.17;5.13;;;;;;;24.27;39.36;94625.28;5074156;28;20441;-82
2021/08/17 02:02:09;;;;;;;5.03;4.50;;;;;;;24.35;39.11;94629.59;5072970;28;20445;-82
2021/08/17 02:04:36;;;;;;;5.57;5.03;;;;;;;24.44;38.92;94632.81;5073319;28;20494;-82
2021/08/17 02:07:04;;;;;;;5.43;5.03;;;;;;;24.45;38.94;94629.91;5072784;28;20431;-82
2021/08/17 02:09:33;;;;;;;6.30;5.40;;;;;;;24.45;39.10;94629.91;5073564;28;20432;-82
2021/08/17 02:12:00;;;;;;;5.20;4.70;;;;;;;24.28;38.24;94631.50;5072862;28;20440;-82
2021/08/17 02:21:10;;;;;;;7.50;5.00;;;;;;;24.26;39.56;94617.47;5073402;28;20880;-83
2021/08/17 02:23:38;;;;;;;5.90;5.33;;;;;;;24.31;39.79;94620.38;5076805;28;20430;-82
2021/08/17 02:26:07;;;;;;;7.17;5.30;;;;;;;24.35;39.94;94625.06;5076859;28;20440;-82
2021/08/17 02:28:34;;;;;;;6.37;5.43;;;;;;;24.29;39.78;94623.28;5077167;28;20521;-82
2021/08/17 02:41:07;;;;;;;5.53;5.03;;;;;;;24.04;41.02;94625.94;5076474;28;20550;-82
2021/08/17 02:43:34;;;;;;;8.23;5.20;;;;;;;24.03;40.39;94624.28;5076708;28;20445;-82
2021/08/17 02:46:01;;;;;;;5.07;4.67;;;;;;;23.93;40.72;94628.50;5076525;28;20521;-82
2021/08/17 02:48:28;;;;;;;5.27;4.87;;;;;;;23.82;42.14;94618.50;5076434;28;20439;-82
2021/08/17 02:50:55;;;;;;;8.20;5.33;;;;;;;23.72;41.26;94619.81;5076192;28;20538;-82
2021/08/17 02:53:22;;;;;;;6.17;5.10;;;;;;;23.61;41.75;94615.13;5076352;28;20480;-82
2021/08/17 02:55:49;;;;;;;5.87;5.30;;;;;;;23.60;41.43;94615.34;5077140;28;20496;-82
2021/08/17 02:58:17;;;;;;;8.33;5.70;;;;;;;23.64;41.95;94624.59;5076062;28;20516;-82
2021/08/17 03:00:46;;;;;;;6.00;5.40;;;;;;;23.69;41.10;94622.88;5075963;28;20439;-82
2021/08/17 03:03:13;;;;;;;5.60;5.03;;;;;;;23.53;41.65;94615.38;5077152;28;20455;-81
2021/08/17 03:05:41;;;;;;;5.20;4.80;;;;;;;23.42;41.58;94618.75;5077010;28;20834;-83
2021/08/17 03:08:08;;;;;;;6.50;5.87;;;;;;;23.26;42.46;94622.75;5077580;28;20505;-81
2021/08/17 03:10:37;;;;;;;9.30;6.07;;;;;;;23.04;43.57;94619.56;5076440;28;20530;-81
2021/08/17 03:13:05;;;;;;;13.50;6.53;;;;;;;22.74;44.60;94624.59;5076089;28;20541;-81
2021/08/17 03:15:34;;;;;;;6.53;5.93;;;;;;;22.59;44.62;94626.72;5076043;28;20480;-81
2021/08/17 03:18:02;;;;;;;7.90;5.90;;;;;;;22.48;45.03;94620.13;5075931;28;20451;-80
2021/08/17 03:20:29;;;;;;;5.47;4.97;;;;;;;22.45;44.95;94625.09;5076358;28;20911;-79
2021/08/17 03:22:56;;;;;;;13.20;5.70;;;;;;;22.42;45.53;94630.84;5076884;28;20451;-80
2021/08/17 03:25:25;;;;;;;7.20;5.40;;;;;;;22.06;45.84;94632.16;5076687;28;20473;-81
2021/08/17 03:27:53;;;;;;;6.50;5.87;;;;;;;22.12;45.48;94635.84;5075463;28;20435;-81
2021/08/17 03:30:23;;;;;;;7.87;5.67;;;;;;;22.13;45.97;94630.28;5075741;28;20813;-80
2021/08/17 03:32:51;;;;;;;8.40;5.40;;;;;;;22.14;46.05;94634.59;5074306;28;20439;-80
2021/08/17 03:35:18;;;;;;;6.60;6.00;;;;;;;22.15;46.21;94630.91;5075758;28;20435;-81
2021/08/17 03:37:46;;;;;;;5.63;5.13;;;;;;;22.13;46.68;94629.47;5075325;28;20950;-80
2021/08/17 03:40:15;;;;;;;6.67;6.03;;;;;;;22.12;46.37;94631.31;5075846;28;20529;-81
2021/08/17 03:42:42;;;;;;;8.30;5.80;;;;;;;22.19;46.83;94636.66;5075643;28;20425;-81
2021/08/17 03:45:12;;;;;;;6.60;6.00;;;;;;;22.15;47.75;94620.22;5075501;28;20519;-81
2021/08/17 03:51:01;;;;;;;10.23;5.90;;;;;;;22.57;48.20;94628.78;5074255;28;20486;-82
2021/08/17 03:53:28;;;;;;;6.30;5.67;;;;;;;22.75;48.06;94628.91;5039951;28;20469;-82
2021/08/17 03:55:55;;;;;;;6.97;6.17;;;;;;;23.12;47.84;94629.19;5075563;28;20566;-83
2021/08/17 03:58:22;;;;;;;7.53;5.78;;;;;;;23.64;45.57;94621.91;5074252;28;20449;-86
2021/08/17 04:00:50;;;;;;;8.70;5.70;;;;;;;24.02;44.39;94622.66;5075331;28;20272;-87
2021/08/17 04:03:17;;;;;;;5.40;4.90;;;;;;;24.41;44.51;94626.03;5075010;28;20845;-86
2021/08/17 04:05:44;;;;;;;5.93;5.30;;;;;;;24.56;44.41;94618.44;5075280;28;20431;-85
2021/08/17 04:08:12;;;;;;;6.20;5.50;;;;;;;24.75;44.78;94623.81;5075005;28;20793;-85
2021/08/17 04:10:40;;;;;;;8.80;5.90;;;;;;;24.92;44.75;94628.38;5075136;28;20522;-80
2021/08/17 04:13:07;;;;;;;6.80;5.77;;;;;;;24.92;41.71;94627.53;5074843;28;20787;-80
2021/08/17 04:15:33;;;;;;;6.50;5.80;;;;;;;24.87;41.91;94630.91;5074742;28;20540;-79
2021/08/17 04:18:00;;;;;;;5.30;4.90;;;;;;;24.88;42.32;94626.34;5075061;28;20444;-81
2021/08/17 04:20:28;;;;;;;7.03;6.17;;;;;;;24.97;41.53;94619.63;5074268;28;20535;-81
2021/08/17 04:22:55;;;;;;;7.00;5.00;;;;;;;25.18;41.32;94619.19;5075212;28;20470;-80
2021/08/17 04:25:23;;;;;;;8.50;5.70;;;;;;;25.49;40.73;94625.38;5074219;28;20782;-81
2021/08/17 04:27:50;;;;;;;6.90;5.60;;;;;;;25.75;39.93;94624.22;5074540;28;20436;-81
2021/08/17 04:30:17;;;;;;;11.07;5.93;;;;;;;26.12;39.33;94616.78;5074759;28;20860;-81
2021/08/17 04:32:44;;;;;;;7.30;5.67;;;;;;;26.42;38.71;94617.50;5039291;28;20472;-81
2021/08/17 04:35:12;;;;;;;5.90;5.40;;;;;;;26.71;37.92;94625.69;5074698;28;20457;-80
2021/08/17 04:37:39;;;;;;;16.30;6.50;;;;;;;26.86;38.04;94623.31;5074538;28;20488;-80
2021/08/17 04:40:07;;;;;;;6.10;5.50;;;;;;;27.03;37.56;94629.63;5039332;28;20467;-80
2021/08/17 04:42:35;;;;;;;6.30;5.70;;;;;;;27.15;37.21;94621.50;5074087;28;20444;-82
2021/08/17 04:45:02;;;;;;;6.23;5.63;;;;;;;27.43;37.95;94618.81;5073991;28;20933;-81
2021/08/17 04:47:29;;;;;;;6.80;5.73;;;;;;;27.67;37.49;94624.97;5074255;28;20452;-81
2021/08/17 04:49:56;;;;;;;11.60;6.50;;;;;;;27.33;38.00;94623.22;5073924;28;20441;-81
2021/08/17 04:52:24;;;;;;;6.00;5.40;;;;;;;26.90;39.00;94623.66;5073600;28;20929;-81
2021/08/17 04:54:51;;;;;;;9.00;6.30;;;;;;;26.83;39.69;94629.16;5074695;28;20445;-81
2021/08/17 04:57:17;;;;;;;6.57;5.90;;;;;;;26.73;40.78;94634.34;5073599;28;20469;-81
2021/08/17 04:59:46;;;;;;;11.37;5.60;;;;;;;27.05;40.19;94634.78;5074270;28;20444;-81
2021/08/17 05:02:13;;;;;;;15.13;7.43;;;;;;;27.28;39.94;94639.28;5074515;28;20441;-81
2021/08/17 05:04:40;;;;;;;13.57;7.83;;;;;;;27.55;39.34;94632.25;5074587;28;20783;-81
2021/08/17 05:07:07;;;;;;;11.10;7.37;;;;;;;27.87;40.03;94635.28;5074100;28;20449;-81
2021/08/17 05:09:34;;;;;;;8.30;7.50;;;;;;;28.12;37.96;94626.00;5074013;28;20460;-81
2021/08/17 05:12:01;;;;;;;9.23;6.80;;;;;;;28.20;38.47;94634.50;5073844;28;20532;-81
2021/08/17 05:14:28;;;;;;;8.17;6.40;;;;;;;28.37;38.44;94627.25;5074158;28;20449;-82
2021/08/17 05:16:56;;;;;;;10.87;7.13;;;;;;;28.51;37.78;94635.81;5055286;28;20484;-81
2021/08/17 05:19:23;;;;;;;14.03;6.77;;;;;;;28.59;37.04;94638.09;5073251;28;21280;-81
2021/08/17 05:21:50;;;;;;;10.00;7.00;;;;;;;28.69;37.20;94634.72;5073468;28;20443;-81
2021/08/17 05:24:17;;;;;;;17.23;7.23;;;;;;;28.82;36.79;94637.06;5073311;28;20932;-82
2021/08/17 05:26:44;;;;;;;13.00;6.03;;;;;;;28.88;35.33;94630.69;5073508;28;20437;-81
2021/08/17 05:29:11;;;;;;;12.87;6.37;;;;;;;29.01;36.40;94637.63;5074002;28;20442;-81
2021/08/17 05:31:38;;;;;;;7.90;6.13;;;;;;;29.26;35.01;94639.81;5073476;28;20454;-81
2021/08/17 05:34:06;;;;;;;7.33;5.97;;;;;;;29.58;34.93;94638.06;5073766;28;20459;-81
2021/08/17 05:36:33;;;;;;;9.90;6.63;;;;;;;29.96;34.28;94638.16;5073200;28;20524;-81
2021/08/17 05:39:00;;;;;;;8.03;6.87;;;;;;;30.14;32.55;94632.41;5038528;28;20460;-81
2021/08/17 05:41:27;;;;;;;5.80;5.20;;;;;;;30.42;32.38;94642.09;5073392;28;20439;-81
2021/08/17 05:43:54;;;;;;;5.90;5.40;;;;;;;30.80;31.51;94636.41;5073723;28;20440;-81
2021/08/17 05:46:21;;;;;;;5.90;5.40;;;;;;;31.00;31.23;94637.63;5038227;28;20444;-81
2021/08/17 05:48:48;;;;;;;10.23;5.90;;;;;;;31.17;31.00;94642.88;5073279;28;20531;-81
2021/08/17 05:51:16;;;;;;;6.17;5.67;;;;;;;31.35;30.77;94648.66;5073391;28;20511;-81
2021/08/17 05:53:43;;;;;;;6.80;5.67;;;;;;;31.55;30.00;94649.81;5073820;28;20494;-81
2021/08/17 05:56:10;;;;;;;7.10;6.50;;;;;;;31.82;29.72;94645.03;5073494;28;20454;-81
2021/08/17 05:58:37;;;;;;;6.53;5.93;;;;;;;32.01;29.91;94638.00;5078030;28;20527;-81
2021/08/17 06:01:04;;;;;;;6.10;5.53;;;;;;;32.12;29.22;94643.44;5077593;28;20913;-81
2021/08/17 06:03:31;;;;;;;9.33;7.80;;;;;;;32.27;29.69;94643.47;5077174;28;20451;-81
2021/08/17 06:05:59;;;;;;;6.40;5.70;;;;;;;32.46;29.41;94636.41;5077571;28;20451;-81
2021/08/17 06:08:27;;;;;;;6.47;5.43;;;;;;;32.47;28.45;94634.50;5077175;28;20444;-81
2021/08/17 06:10:54;;;;;;;8.03;6.23;;;;;;;32.58;29.41;94638.84;5041939;28;20866;-81
2021/08/17 06:13:23;;;;;;;7.50;5.53;;;;;;;32.68;28.20;94644.28;5041805;28;20437;-81
2021/08/17 06:15:50;;;;;;;7.73;6.20;;;;;;;32.49;28.81;94643.22;5077032;28;20476;-81
2021/08/17 06:18:17;;;;;;;6.20;5.70;;;;;;;32.45;29.02;94637.50;5058517;28;20484;-81
2021/08/17 06:20:44;;;;;;;7.37;5.37;;;;;;;32.51;28.81;94643.75;5058523;28;20462;-81
2021/08/17 06:23:11;;;;;;;6.53;5.97;;;;;;;32.56;28.26;94638.31;5077188;28;20436;-81
2021/08/17 06:25:40;;;;;;;6.67;6.00;;;;;;;32.27;29.06;94629.91;5076870;28;20535;-81
2021/08/17 06:28:08;;;;;;;8.90;6.80;;;;;;;32.35;28.34;94634.78;5076591;28;20451;-80
2021/08/17 06:30:35;;;;;;;7.70;5.50;;;;;;;32.54;28.33;94626.91;5077042;28;20444;-81
2021/08/17 06:33:02;;;;;;;7.13;6.40;;;;;;;32.72;28.11;94633.69;5077093;28;20528;-81
2021/08/17 06:35:30;;;;;;;6.80;6.20;;;;;;;32.98;28.67;94627.13;5076941;28;20436;-82
2021/08/17 06:37:57;;;;;;;6.47;5.87;;;;;;;33.12;27.32;94630.88;5076465;28;20495;-81
2021/08/17 06:40:26;;;;;;;6.40;5.70;;;;;;;33.34;27.26;94624.31;5076831;28;20539;-80
2021/08/17 06:42:54;;;;;;;10.77;6.30;;;;;;;33.40;27.02;94628.63;5076580;28;20444;-81
2021/08/17 06:45:22;;;;;;;10.10;6.20;;;;;;;33.42;27.61;94629.16;5076275;28;20528;-81
2021/08/17 06:47:51;;;;;;;8.87;6.60;;;;;;;33.42;26.87;94626.44;5076517;28;20435;-81
2021/08/17 06:50:19;;;;;;;9.57;6.80;;;;;;;33.46;28.04;94628.31;5076478;28;20525;-81
2021/08/17 06:52:47;;;;;;;9.40;6.97;;;;;;;33.31;27.62;94627.56;5076233;28;20559;-82
2021/08/17 06:55:15;;;;;;;10.53;6.40;;;;;;;33.25;27.92;94621.28;5076149;28;20897;-82
2021/08/17 06:57:42;;;;;;;10.10;6.03;;;;;;;32.18;28.50;94616.03;5076572;28;20490;-81
2021/08/17 07:00:12;;;;;;;11.90;6.60;;;;;;;31.81;29.89;94613.56;5076587;28;20437;-81
2021/08/17 07:02:39;;;;;;;7.70;6.00;;;;;;;31.91;30.19;94608.13;5076721;28;20535;-80
2021/08/17 07:05:07;;;;;;;13.47;6.90;;;;;;;31.94;29.69;94613.00;5076543;28;20436;-80
2021/08/17 07:07:34;;;;;;;8.93;6.70;;;;;;;32.12;29.64;94602.72;5076227;28;20615;-81
2021/08/17 07:10:01;;;;;;;12.23;6.30;;;;;;;31.89;30.47;94609.47;5076373;28;20520;-81
2021/08/17 07:12:28;;;;;;;8.83;6.10;;;;;;;31.71;30.67;94605.38;5076019;28;20764;-81
2021/08/17 07:14:55;;;;;;;9.13;7.30;;;;;;;31.41;30.92;94603.38;5076392;28;20551;-81
2021/08/17 07:17:24;;;;;;;7.90;6.30;;;;;;;31.07;30.80;94608.38;5075876;28;20572;-81
2021/08/17 07:19:51;;;;;;;7.10;6.00;;;;;;;31.23;31.67;94609.31;5076103;28;20991;-81
2021/08/17 07:22:17;;;;;;;7.20;6.50;;;;;;;31.51;31.22;94605.28;5075879;28;20449;-81
2021/08/17 07:24:44;;;;;;;8.00;7.30;;;;;;;31.98;31.55;94608.66;5075980;28;20551;-81
2021/08/17 07:27:11;;;;;;;7.67;6.87;;;;;;;32.18;29.73;94598.91;5076322;28;20476;-81
2021/08/17 07:29:39;;;;;;;8.40;5.67;;;;;;;32.03;30.23;94602.44;5075837;28;20527;-81
2021/08/17 07:32:06;;;;;;;14.50;6.33;;;;;;;32.07;30.38;94600.78;5075608;28;20457;-81
2021/08/17 07:34:35;;;;;;;6.80;5.60;;;;;;;32.00;29.30;94595.63;5075557;28;20532;-81
2021/08/17 07:37:02;;;;;;;7.60;6.50;;;;;;;31.86;31.67;94605.41;5075728;28;20575;-81
2021/08/17 07:39:29;;;;;;;8.23;6.07;;;;;;;32.07;29.17;94600.78;5075372;28;20536;-80
2021/08/17 07:41:57;;;;;;;14.20;7.00;;;;;;;32.27;29.60;94605.44;5075722;28;20433;-81
2021/08/17 07:44:25;;;;;;;7.60;6.50;;;;;;;31.87;30.31;94598.09;5075513;28;20445;-81
2021/08/17 07:46:52;;;;;;;11.17;5.87;;;;;;;32.12;30.38;94597.28;5075763;28;20445;-81
2021/08/17 07:49:19;;;;;;;9.23;6.10;;;;;;;32.02;30.59;94598.91;5075113;28;20524;-81
2021/08/17 07:51:48;;;;;;;7.33;5.83;;;;;;;32.03;30.32;94599.72;5075354;28;20531;-80
2021/08/17 07:54:15;;;;;;;6.90;6.20;;;;;;;32.31;29.40;94606.53;5075766;28;20483;-81
2021/08/17 07:56:42;;;;;;;10.70;6.60;;;;;;;32.40;28.93;94613.06;5075096;28;20909;-81
2021/08/17 07:59:09;;;;;;;7.30;6.60;;;;;;;32.42;28.58;94601.94;5075196;28;20444;-81
2021/08/17 08:01:36;;;;;;;8.60;6.47;;;;;;;32.30;28.45;94591.31;5074959;28;20440;-81
2021/08/17 08:04:03;;;;;;;7.33;5.97;;;;;;;32.46;29.99;94595.66;5074809;28;20452;-81
2021/08/17 08:06:30;;;;;;;7.17;6.33;;;;;;;32.58;28.45;94593.47;5040260;28;20495;-81
2021/08/17 08:08:58;;;;;;;6.30;5.50;;;;;;;32.76;28.72;94593.97;5075184;28;20459;-81
2021/08/17 08:11:25;;;;;;;6.57;5.90;;;;;;;32.69;28.42;94580.69;5075229;28;20449;-81
2021/08/17 08:13:52;;;;;;;9.23;5.80;;;;;;;32.68;28.77;94589.13;5075243;28;20456;-81
2021/08/17 08:16:19;;;;;;;7.70;6.50;;;;;;;32.69;28.69;94591.56;5074690;28;21012;-82
2021/08/17 08:18:46;;;;;;;6.87;5.53;;;;;;;32.73;29.68;94587.19;5055743;28;21022;-81
2021/08/17 08:21:13;;;;;;;6.40;5.63;;;;;;;32.42;29.81;94591.06;5074702;28;20540;-82
2021/08/17 08:23:40;;;;;;;6.57;5.97;;;;;;;32.75;30.75;94589.63;5074562;28;20466;-81
2021/08/17 08:26:08;;;;;;;11.07;5.20;;;;;;;32.60;28.51;94579.59;5073890;28;20940;-81
2021/08/17 08:28:35;;;;;;;13.60;5.70;;;;;;;32.33;29.79;94577.19;5074092;28;20463;-81
2021/08/17 08:31:02;;;;;;;6.73;6.13;;;;;;;32.35;29.13;94575.00;5074226;28;20783;-81
2021/08/17 08:33:29;;;;;;;6.00;5.40;;;;;;;32.49;28.83;94581.53;5073880;28;20535;-81
2021/08/17 08:35:56;;;;;;;7.10;5.70;;;;;;;32.69;28.61;94579.88;5074067;28;20528;-81
2021/08/17 08:38:23;;;;;;;6.90;5.77;;;;;;;32.68;29.89;94578.25;5074064;28;20480;-81
2021/08/17 08:40:52;;;;;;;11.03;5.97;;;;;;;32.86;29.53;94573.03;5074165;28;20452;-81
2021/08/17 08:43:21;;;;;;;9.27;7.10;;;;;;;33.02;29.07;94578.44;5073694;28;20798;-82
2021/08/17 08:45:48;;;;;;;7.70;7.10;;;;;;;32.72;29.27;94573.88;5073867;28;20533;-81
2021/08/17 08:48:17;;;;;;;10.50;6.27;;;;;;;32.95;28.84;94574.09;5055207;28;20453;-81
2021/08/17 08:50:45;;;;;;;10.83;7.10;;;;;;;32.97;28.81;94573.84;5073805;28;20524;-81
2021/08/17 08:53:13;;;;;;;10.30;7.03;;;;;;;33.10;29.05;94564.25;5073663;28;20556;-81
2021/08/17 08:55:40;;;;;;;11.70;6.53;;;;;;;33.30;28.78;94557.91;5055764;28;20831;-82
2021/08/17 08:58:07;;;;;;;9.83;6.53;;;;;;;33.54;28.58;94556.16;5073890;28;20948;-81
2021/08/17 09:00:35;;;;;;;9.90;6.80;;;;;;;33.71;28.33;94551.16;5074055;28;20508;-81
2021/08/17 09:03:02;;;;;;;8.50;5.97;;;;;;;33.75;28.00;94545.94;5073784;28;20443;-81
2021/08/17 09:05:30;;;;;;;9.50;5.90;;;;;;;33.79;27.69;94536.94;5073914;28;20519;-81
2021/08/17 09:08:03;;;;;;;12.13;5.93;;;;;;;33.62;28.88;94541.97;5074049;28;20794;-81
2021/08/17 09:10:30;;;;;;;12.70;7.17;;;;;;;33.62;28.37;94541.97;5073894;28;20437;-82
2021/08/17 09:12:58;;;;;;;9.20;6.17;;;;;;;33.62;28.26;94541.97;5038550;28;20788;-81
2021/08/17 09:15:29;;;;;;;8.40;6.37;;;;;;;33.49;27.45;94537.97;5073525;28;20818;-81
2021/08/17 09:18:03;;;;;;;9.40;6.77;;;;;;;33.00;28.08;94537.94;5073855;28;20491;-81
2021/08/17 09:20:33;;;;;;;12.70;5.83;;;;;;;33.10;27.54;94528.91;5073740;28;20445;-82
2021/08/17 09:23:25;;;;;;;10.77;6.90;;;;;;;33.21;28.75;94531.28;5073670;28;20462;-82
2021/08/17 09:25:53;;;;;;;7.07;6.37;;;;;;;33.22;28.33;94521.22;5073621;28;20467;-82
2021/08/17 09:28:29;;;;;;;16.03;6.77;;;;;;;33.14;27.65;94521.81;5073304;28;20444;-81
2021/08/17 09:30:56;;;;;;;13.50;6.70;;;;;;;33.24;28.47;94516.31;5072587;28;20995;-82
2021/08/17 09:33:35;;;;;;;10.00;6.90;;;;;;;32.80;28.73;94511.63;5073474;28;21005;-81
2021/08/17 09:36:03;;;;;;;12.13;6.90;;;;;;;32.96;29.60;94515.09;5038673;28;20579;-81
2021/08/17 09:38:32;;;;;;;7.40;6.20;;;;;;;33.12;29.22;94513.94;5073446;28;20468;-81
2021/08/17 09:41:00;;;;;;;7.73;6.10;;;;;;;33.27;29.86;94504.91;5055153;28;20448;-81
2021/08/17 09:43:27;;;;;;;11.43;6.53;;;;;;;33.51;28.13;94515.91;5073362;28;20457;-81
2021/08/17 09:45:54;;;;;;;17.37;6.10;;;;;;;33.52;29.42;94502.00;5073443;28;20540;-81
2021/08/17 09:48:31;;;;;;;8.37;6.27;;;;;;;33.34;29.63;94507.31;5073946;28;20527;-81
2021/08/17 09:50:58;;;;;;;18.93;6.90;;;;;;;33.42;28.25;94504.81;5073778;28;20456;-81
2021/08/17 09:53:26;;;;;;;9.03;6.70;;;;;;;33.59;29.04;94496.28;5073478;28;20475;-81
2021/08/17 09:55:56;;;;;;;11.40;6.80;;;;;;;33.73;28.89;94499.16;5072874;28;20433;-81
2021/08/17 09:58:26;;;;;;;12.23;7.47;;;;;;;33.79;28.75;94498.00;5073200;28;20469;-81
2021/08/17 10:00:55;;;;;;;8.40;6.00;;;;;;;33.72;28.18;94501.06;5073652;28;20453;-81
2021/08/17 10:03:23;;;;;;;19.17;6.67;;;;;;;33.56;28.30;94503.09;5073500;28;20524;-81
2021/08/17 10:05:51;;;;;;;7.17;6.33;;;;;;;33.61;27.85;94494.09;5037838;28;21051;-81
2021/08/17 10:08:19;;;;;;;8.63;7.40;;;;;;;33.57;29.17;94495.75;5054900;28;20459;-81
2021/08/17 10:10:47;;;;;;;6.97;6.40;;;;;;;33.51;29.16;94494.13;5054366;28;20444;-81
2021/08/17 10:13:16;;;;;;;9.20;6.93;;;;;;;33.48;29.83;94489.25;5073211;28;20457;-81
2021/08/17 10:15:44;;;;;;;12.23;7.13;;;;;;;33.34;28.71;94488.28;5072699;28;20430;-81
2021/08/17 10:18:13;;;;;;;9.57;7.43;;;;;;;33.29;29.26;94496.44;5072987;28;20484;-81
2021/08/17 10:20:46;;;;;;;8.23;6.70;;;;;;;33.21;29.49;94492.41;5073208;28;20429;-81
2021/08/17 10:23:17;;;;;;;8.07;6.70;;;;;;;33.21;29.53;94490.47;5073138;28;20433;-81
2021/08/17 10:25:46;;;;;;;7.40;6.43;;;;;;;33.10;28.84;94494.38;5073121;28;20439;-81
2021/08/17 10:28:30;;;;;;;14.03;7.40;;;;;;;32.99;28.68;94487.38;5072607;28;20540;-81
2021/08/17 10:30:58;;;;;;;9.60;7.10;;;;;;;33.15;29.53;94486.19;5073306;28;20464;-81
2021/08/17 10:33:39;;;;;;;10.27;7.50;;;;;;;33.30;28.74;94487.19;5072571;28;20543;-82
2021/08/17 10:36:06;;;;;;;7.20;6.50;;;;;;;33.41;28.52;94477.91;5072767;28;20456;-82
2021/08/17 10:38:44;;;;;;;11.47;6.40;;;;;;;33.47;28.92;94479.47;5073052;28;20484;-81
2021/08/17 10:41:12;;;;;;;10.80;7.07;;;;;;;33.55;29.12;94478.91;5072401;28;20433;-81
2021/08/17 10:44:16;;;;;;;11.87;7.03;;;;;;;33.46;28.64;94467.78;5073603;28;20433;-81
2021/08/17 10:46:59;;;;;;;12.37;7.60;;;;;;;33.57;29.45;94463.09;5076358;28;20471;-82
2021/08/17 10:49:49;;;;;;;7.47;6.90;;;;;;;33.63;28.30;94464.66;5076954;28;20537;-82
2021/08/17 10:52:39;;;;;;;8.20;7.40;;;;;;;33.67;28.33;94457.56;5076254;28;20445;-81
2021/08/17 10:55:28;;;;;;;7.80;6.77;;;;;;;33.69;29.28;94454.56;5076336;28;20528;-81
2021/08/17 10:57:58;;;;;;;12.63;7.83;;;;;;;33.77;29.04;94459.38;5076056;28;20493;-82
2021/08/17 11:00:53;;;;;;;8.57;7.77;;;;;;;33.88;29.06;94446.53;5040694;28;20472;-81
2021/08/17 11:03:44;;;;;;;9.07;7.60;;;;;;;33.91;29.30;94443.22;5076509;28;20444;-82
2021/08/17 11:06:32;;;;;;;13.80;7.13;;;;;;;33.94;28.39;94437.22;5057725;28;20491;-81
2021/08/17 11:09:00;;;;;;;11.10;8.40;;;;;;;33.67;28.71;94427.63;5076462;28;20523;-81
2021/08/17 11:11:28;;;;;;;8.77;7.87;;;;;;;33.60;29.00;94424.41;5076221;28;20444;-81
2021/08/17 11:14:13;;;;;;;12.97;7.30;;;;;;;33.79;29.52;94425.31;5075965;28;20539;-81
2021/08/17 11:16:43;;;;;;;8.23;7.40;;;;;;;33.90;28.87;94422.56;5075799;28;20995;-81
2021/08/17 11:19:10;;;;;;;13.00;7.83;;;;;;;33.62;27.92;94416.78;5075708;28;20510;-81
2021/08/17 11:21:39;;;;;;;10.37;6.87;;;;;;;33.76;28.83;94415.00;5075570;28;20961;-81
2021/08/17 11:24:14;;;;;;;9.23;8.33;;;;;;;33.80;27.69;94410.59;5075776;28;20437;-81
2021/08/17 11:26:44;;;;;;;8.20;7.50;;;;;;;33.90;28.06;94412.47;5075518;28;20455;-81
2021/08/17 11:29:16;;;;;;;9.00;8.10;;;;;;;33.97;27.99;94404.78;5075587;28;20459;-82
2021/08/17 11:31:45;;;;;;;8.53;7.70;;;;;;;34.10;28.06;94405.97;5075589;28;20444;-82
2021/08/17 11:34:14;;;;;;;9.07;8.00;;;;;;;34.20;27.93;94405.91;5075321;28;20441;-81
2021/08/17 11:36:41;;;;;;;10.20;7.03;;;;;;;33.82;28.77;94404.88;5076094;28;20429;-82
2021/08/17 11:39:18;;;;;;;8.90;7.90;;;;;;;33.98;29.39;94402.84;5075463;28;20503;-82
2021/08/17 11:41:47;;;;;;;7.73;7.07;;;;;;;34.05;28.70;94401.41;5075259;28;20527;-82
2021/08/17 11:44:15;;;;;;;10.67;8.60;;;;;;;34.11;28.89;94391.25;5075475;28;20449;-82
2021/08/17 11:46:42;;;;;;;12.13;7.97;;;;;;;34.21;27.68;94396.63;5075347;28;20443;-82
2021/08/17 11:49:22;;;;;;;8.90;8.13;;;;;;;34.37;27.78;94389.91;5075539;28;20883;-82
2021/08/17 11:52:08;;;;;;;9.67;8.57;;;;;;;34.44;29.05;94389.56;5075466;28;20440;-82
2021/08/17 11:54:47;;;;;;;9.80;8.80;;;;;;;34.53;27.81;94381.56;5074757;28;20460;-82
2021/08/17 11:57:20;;;;;;;10.37;8.47;;;;;;;34.62;27.50;94374.34;5075533;28;20441;-82
2021/08/17 11:59:48;;;;;;;10.00;9.07;;;;;;;34.65;28.01;94377.28;5075060;28;20523;-80
2021/08/17 12:02:24;;;;;;;11.90;10.67;;;;;;;34.62;27.19;94372.41;5075259;28;20456;-81
2021/08/17 12:04:57;;;;;;;13.23;11.70;;;;;;;34.59;26.21;94373.00;5074702;28;20959;-81
2021/08/17 12:07:25;;;;;;;14.23;12.77;;;;;;;34.65;27.32;94371.03;5056351;28;20435;-81
2021/08/17 12:09:53;;;;;;;16.27;10.73;;;;;;;34.53;26.95;94373.38;5074541;28;20447;-81
2021/08/17 12:12:55;;;;;;;13.10;10.90;;;;;;;34.64;27.24;94372.13;5074770;28;20595;-81
2021/08/17 12:15:28;;;;;;;14.40;12.90;;;;;;;34.36;26.89;94363.75;5074707;28;20447;-81
2021/08/17 12:17:56;;;;;;;16.70;11.37;;;;;;;34.41;26.85;94365.63;5074488;28;20441;-82
2021/08/17 12:20:23;;;;;;;24.60;12.80;;;;;;;34.34;27.60;94362.44;5074485;28;20833;-81
2021/08/17 12:22:50;;;;;;;15.07;12.90;;;;;;;34.40;27.68;94359.34;5039346;28;20511;-81
2021/08/17 12:25:21;;;;;;;14.60;13.10;;;;;;;34.31;28.12;94355.63;5074577;28;20532;-81
2021/08/17 12:27:55;;;;;;;13.23;11.93;;;;;;;34.26;27.32;94350.25;5074600;28;20436;-81
2021/08/17 12:30:30;;;;;;;13.70;12.40;;;;;;;34.28;27.83;94352.69;5074872;28;20507;-81
2021/08/17 12:32:58;;;;;;;14.53;12.60;;;;;;;34.18;28.02;94345.44;5074691;28;20428;-81
2021/08/17 12:35:27;;;;;;;17.73;12.60;;;;;;;34.09;28.52;94347.16;5074510;28;20445;-81
2021/08/17 12:37:53;;;;;;;21.73;14.40;;;;;;;33.98;28.42;94341.03;5074336;28;20441;-81
2021/08/17 12:40:20;;;;;;;13.93;11.20;;;;;;;33.96;28.65;94337.00;5074295;28;20506;-81
2021/08/17 12:42:47;;;;;;;12.47;11.33;;;;;;;33.92;28.80;94325.88;5074343;28;20454;-81
2021/08/17 12:45:28;;;;;;;14.93;11.67;;;;;;;33.94;28.25;94317.41;5074632;28;20455;-81
2021/08/17 12:47:58;;;;;;;13.80;12.03;;;;;;;34.05;28.77;94324.34;5039118;28;20451;-81
2021/08/17 12:50:25;;;;;;;14.13;12.70;;;;;;;34.15;28.43;94318.78;5073876;28;20456;-80